createdAt,value
2022-09-16T00:01:33.993Z,97530.31
2022-09-16T00:04:04.444Z,97524.22
2022-09-16T00:06:34.756Z,97527.19
2022-09-16T00:09:07.273Z,97528.66
2022-09-16T00:11:37.281Z,97521.88
2022-09-16T00:14:08.001Z,97520.75
2022-09-16T00:16:38.044Z,97515.75
2022-09-16T00:19:08.014Z,97510.78
2022-09-16T00:21:38.015Z,97510.19
2022-09-16T00:24:14.115Z,97507.53
2022-09-16T00:26:44.154Z,97510.53
2022-09-16T00:29:14.518Z,97507.53
2022-09-16T00:31:44.531Z,97512.28
2022-09-16T00:34:14.526Z,97512.72
2022-09-16T00:36:44.491Z,97521.41
2022-09-16T00:39:17.036Z,97516.84
2022-09-16T00:41:47.352Z,97520.97
2022-09-16T00:44:57.947Z,97524.16
2022-09-16T00:47:35.891Z,97521.47
2022-09-16T00:50:12.254Z,97522.66
2022-09-16T00:52:43.801Z,97524.63
2022-09-16T00:55:21.249Z,97529.53
2022-09-16T00:57:52.245Z,97521.88
2022-09-16T01:00:22.358Z,97528.44
2022-09-16T01:02:54.173Z,97523.84
2022-09-16T01:05:28.927Z,97529.63
2022-09-16T01:07:59.434Z,97527.50
2022-09-16T01:10:32.043Z,97537.81
2022-09-16T01:13:07.564Z,97534.94
2022-09-16T01:15:48.740Z,97532.00
2022-09-16T01:18:34.337Z,97521.78
2022-09-16T01:21:25.415Z,97522.22
2022-09-16T01:24:52.974Z,97522.88
2022-09-16T01:27:54.918Z,97526.84
2022-09-16T01:31:02.827Z,97520.34
2022-09-16T01:33:45.786Z,97521.88
2022-09-16T01:36:40.284Z,97522.16
2022-09-16T01:39:26.476Z,97526.28
2022-09-16T01:42:18.738Z,97529.13
2022-09-16T01:45:01.333Z,97529.94
2022-09-16T01:47:41.006Z,97517.16
2022-09-16T01:50:22.082Z,97520.06
2022-09-16T01:53:04.909Z,97518.31
2022-09-16T01:55:43.034Z,97520.63
2022-09-16T01:58:23.003Z,97524.25
2022-09-16T02:01:02.122Z,97520.91
2022-09-16T02:03:42.107Z,97518.03
2022-09-16T02:06:20.323Z,97516.88
2022-09-16T02:08:57.774Z,97513.34
2022-09-16T02:11:28.808Z,97513.50
2022-09-16T02:14:08.583Z,97517.47
2022-09-16T02:16:43.821Z,97518.97
2022-09-16T02:19:23.659Z,97521.59
2022-09-16T02:21:59.137Z,97519.34
2022-09-16T02:24:34.115Z,97514.63
2022-09-16T02:27:09.598Z,97525.44
2022-09-16T02:29:47.588Z,97528.00
2022-09-16T02:32:20.518Z,97515.75
2022-09-16T02:34:55.625Z,97511.53
2022-09-16T02:37:33.055Z,97507.16
2022-09-16T02:40:08.682Z,97505.03
2022-09-16T02:42:38.693Z,97510.13
2022-09-16T02:45:11.162Z,97508.66
2022-09-16T02:47:54.930Z,97509.19
2022-09-16T02:50:37.891Z,97519.19
2022-09-16T02:53:27.444Z,97510.31
2022-09-16T02:56:06.251Z,97512.94
2022-09-16T02:58:37.196Z,97514.19
2022-09-16T03:01:07.404Z,97515.50
2022-09-16T03:03:37.533Z,97509.09
2022-09-16T03:06:23.028Z,97513.78
2022-09-16T03:08:55.477Z,97518.00
2022-09-16T03:12:20.800Z,97519.59
2022-09-16T03:15:33.024Z,97512.72
2022-09-16T03:18:26.444Z,97518.88
2022-09-16T03:21:06.921Z,97509.16
2022-09-16T03:23:50.011Z,97512.72
2022-09-16T03:26:36.137Z,97511.25
2022-09-16T03:29:19.071Z,97517.56
2022-09-16T03:32:00.104Z,97510.91
2022-09-16T03:34:38.202Z,97499.56
2022-09-16T03:37:12.910Z,97496.22
2022-09-16T03:39:50.480Z,97497.31
2022-09-16T03:42:20.771Z,97500.72
2022-09-16T03:44:51.364Z,97501.28
2022-09-16T03:47:21.399Z,97498.16
2022-09-16T03:49:51.557Z,97492.63
2022-09-16T03:52:21.542Z,97502.06
2022-09-16T03:54:54.068Z,97499.50
2022-09-16T03:57:24.019Z,97500.16
2022-09-16T03:59:54.110Z,97498.28
2022-09-16T04:02:24.061Z,97495.53
2022-09-16T04:04:54.150Z,97495.56
2022-09-16T04:07:24.069Z,97500.66
2022-09-16T04:09:56.619Z,97493.31
2022-09-16T04:12:26.628Z,97498.44
2022-09-16T04:14:56.659Z,97494.78
2022-09-16T04:17:27.013Z,97491.91
2022-09-16T04:19:56.970Z,97487.56
2022-09-16T04:22:26.956Z,97494.09
2022-09-16T04:24:59.574Z,97485.50
2022-09-16T04:27:29.599Z,97486.66
2022-09-16T04:29:59.511Z,97484.53
2022-09-16T04:32:29.418Z,97473.75
2022-09-16T04:34:59.469Z,97468.63
2022-09-16T04:37:32.184Z,97469.41
2022-09-16T04:40:05.475Z,97475.28
2022-09-16T04:42:35.434Z,97474.53
2022-09-16T04:45:05.397Z,97472.44
2022-09-16T04:47:35.365Z,97474.41
2022-09-16T04:50:05.307Z,97477.09
2022-09-16T04:52:35.261Z,97470.44
2022-09-16T04:55:09.353Z,97470.88
2022-09-16T04:57:39.243Z,97466.66
2022-09-16T05:00:12.509Z,97484.69
2022-09-16T05:02:42.446Z,97483.78
2022-09-16T05:05:12.839Z,97480.66
2022-09-16T05:07:42.789Z,97482.66
2022-09-16T05:10:15.854Z,97488.69
2022-09-16T05:12:49.389Z,97489.59
2022-09-16T05:15:19.973Z,97494.06
2022-09-16T05:17:51.726Z,97488.69
2022-09-16T05:20:21.982Z,97494.97
2022-09-16T05:22:53.106Z,97491.50
2022-09-16T05:25:25.653Z,97488.81
2022-09-16T05:27:55.694Z,97485.34
2022-09-16T05:30:26.375Z,97485.44
2022-09-16T05:32:57.012Z,97481.09
2022-09-16T05:35:27.124Z,97481.56
2022-09-16T05:37:57.081Z,97478.22
2022-09-16T05:40:30.019Z,97485.78
2022-09-16T05:43:00.024Z,97491.34
2022-09-16T05:45:32.394Z,97490.47
2022-09-16T05:48:02.815Z,97483.91
2022-09-16T05:50:32.732Z,97487.69
2022-09-16T05:53:02.632Z,97497.25
2022-09-16T05:55:35.134Z,97495.13
2022-09-16T05:58:05.048Z,97501.03
2022-09-16T06:00:35.599Z,97505.78
2022-09-16T06:03:05.681Z,97514.78
2022-09-16T06:05:35.613Z,97504.44
2022-09-16T06:08:05.722Z,97503.72
2022-09-16T06:10:41.170Z,97499.38
2022-09-16T06:13:11.646Z,97503.63
2022-09-16T06:15:41.659Z,97501.19
2022-09-16T06:18:15.919Z,97506.50
2022-09-16T06:20:45.843Z,97507.63
2022-09-16T06:23:15.933Z,97510.59
2022-09-16T06:25:48.877Z,97509.38
2022-09-16T06:28:19.091Z,97517.03
2022-09-16T06:30:49.094Z,97524.13
2022-09-16T06:33:19.110Z,97520.88
2022-09-16T06:35:49.042Z,97514.53
2022-09-16T06:38:19.144Z,97509.38
2022-09-16T06:40:51.921Z,97509.97
2022-09-16T06:43:21.846Z,97508.13
2022-09-16T06:45:51.989Z,97508.81
2022-09-16T06:48:22.111Z,97509.69
2022-09-16T06:50:52.167Z,97510.69
2022-09-16T06:53:22.107Z,97505.09
2022-09-16T06:55:54.780Z,97505.16
2022-09-16T06:58:24.732Z,97498.06
2022-09-16T07:00:55.140Z,97509.28
2022-09-16T07:03:25.110Z,97509.53
2022-09-16T07:06:03.183Z,97522.94
2022-09-16T07:08:34.917Z,97516.63
2022-09-16T07:11:10.523Z,97521.69
2022-09-16T07:13:40.582Z,97521.06
2022-09-16T07:16:17.775Z,97518.34
2022-09-16T07:18:49.015Z,97522.88
2022-09-16T07:21:24.431Z,97523.22
2022-09-16T07:23:58.428Z,97517.78
2022-09-16T07:26:33.723Z,97526.09
2022-09-16T07:29:06.953Z,97530.38
2022-09-16T07:31:40.225Z,97531.97
2022-09-16T07:34:13.134Z,97539.97
2022-09-16T07:36:45.658Z,97550.75
2022-09-16T07:39:18.349Z,97551.88
2022-09-16T07:41:51.222Z,97554.78
2022-09-16T07:44:22.906Z,97558.84
2022-09-16T07:46:53.109Z,97551.03
2022-09-16T07:49:23.224Z,97548.91
2022-09-16T07:51:53.334Z,97544.25
2022-09-16T07:54:23.335Z,97544.88
2022-09-16T07:56:55.956Z,97541.22
2022-09-16T07:59:25.899Z,97549.72
2022-09-16T08:01:55.904Z,97548.88
2022-09-16T08:04:25.924Z,97559.59
2022-09-16T08:06:55.891Z,97558.88
2022-09-16T08:09:37.897Z,97558.50
2022-09-16T08:12:12.862Z,97564.34
2022-09-16T08:14:42.892Z,97553.84
2022-09-16T08:17:12.818Z,97550.56
2022-09-16T08:19:42.782Z,97552.41
2022-09-16T08:22:12.689Z,97562.44
2022-09-16T08:24:42.623Z,97574.56
2022-09-16T08:27:15.856Z,97573.75
2022-09-16T08:29:45.841Z,97571.22
2022-09-16T08:32:15.961Z,97580.06
2022-09-16T08:34:45.993Z,97576.56
2022-09-16T08:37:15.876Z,97582.16
2022-09-16T08:39:45.850Z,97591.13
2022-09-16T08:42:40.497Z,97588.03
2022-09-16T08:45:23.266Z,97579.66
2022-09-16T08:48:10.725Z,97595.16
2022-09-16T08:50:45.022Z,97587.34
2022-09-16T08:53:24.715Z,97589.25
2022-09-16T08:55:55.873Z,97593.94
2022-09-16T08:58:36.757Z,97592.50
2022-09-16T09:01:18.895Z,97590.84
2022-09-16T09:03:51.103Z,97599.63
2022-09-16T09:06:46.156Z,97597.09
2022-09-16T09:09:34.641Z,97600.06
2022-09-16T09:12:15.659Z,97604.84
2022-09-16T09:15:07.019Z,97598.75
2022-09-16T09:17:55.873Z,97599.97
2022-09-16T09:20:47.061Z,97596.03
2022-09-16T09:23:36.962Z,97601.41
2022-09-16T09:26:16.397Z,97595.25
2022-09-16T09:29:22.258Z,97592.31
2022-09-16T09:32:07.379Z,97592.13
2022-09-16T09:34:55.894Z,97589.84
2022-09-16T09:37:46.670Z,97586.09
2022-09-16T09:40:25.406Z,97581.00
2022-09-16T09:43:07.873Z,97578.97
2022-09-16T09:45:43.632Z,97576.38
2022-09-16T09:48:25.353Z,97571.78
2022-09-16T09:50:58.753Z,97565.19
2022-09-16T09:53:35.763Z,97573.63
2022-09-16T09:56:19.562Z,97567.84
2022-09-16T09:59:03.469Z,97571.44
2022-09-16T10:01:33.667Z,97573.19
2022-09-16T10:04:15.394Z,97575.38
2022-09-16T10:06:47.880Z,97571.59
2022-09-16T10:09:20.158Z,97572.81
2022-09-16T10:11:55.166Z,97569.19
2022-09-16T10:14:33.881Z,97574.31
2022-09-16T10:17:06.907Z,97576.53
2022-09-16T10:19:54.090Z,97582.13
2022-09-16T10:22:29.704Z,97585.72
2022-09-16T10:25:02.259Z,97576.47
2022-09-16T10:27:36.864Z,97571.25
2022-09-16T10:30:18.141Z,97568.03
2022-09-16T10:32:59.269Z,97568.00
2022-09-16T10:35:35.112Z,97571.59
2022-09-16T10:38:15.892Z,97570.09
2022-09-16T10:40:55.625Z,97565.66
2022-09-16T10:43:28.179Z,97566.97
2022-09-16T10:45:58.978Z,97569.03
2022-09-16T10:48:33.937Z,97573.44
2022-09-16T10:51:09.188Z,97571.34
2022-09-16T10:53:44.395Z,97570.31
2022-09-16T10:56:23.727Z,97572.25
2022-09-16T10:59:06.106Z,97573.53
2022-09-16T11:01:48.701Z,97572.50
2022-09-16T11:04:46.901Z,97568.38
2022-09-16T11:07:37.486Z,97580.38
2022-09-16T11:10:20.335Z,97585.25
2022-09-16T11:13:23.605Z,97582.97
2022-09-16T11:16:11.709Z,97588.97
2022-09-16T11:18:58.973Z,97589.22
2022-09-16T11:21:56.988Z,97592.09
2022-09-16T11:25:08.190Z,97592.00
2022-09-16T11:27:51.886Z,97597.72
2022-09-16T11:30:24.945Z,97595.28
2022-09-16T11:33:22.362Z,97595.75
2022-09-16T11:36:34.329Z,97588.38
2022-09-16T11:39:23.758Z,97587.88
2022-09-16T11:42:07.050Z,97594.16
2022-09-16T11:44:49.436Z,97596.09
2022-09-16T11:47:51.735Z,97593.84
2022-09-16T11:50:43.248Z,97595.91
2022-09-16T11:53:44.120Z,97596.34
2022-09-16T11:56:21.500Z,97591.00
2022-09-16T11:59:00.137Z,97590.63
2022-09-16T12:01:40.252Z,97588.13
2022-09-16T12:04:18.912Z,97581.84
2022-09-16T12:07:01.210Z,97580.66
2022-09-16T12:09:42.366Z,97571.03
2022-09-16T12:12:17.544Z,97579.88
2022-09-16T12:15:00.894Z,97586.47
2022-09-16T12:17:37.531Z,97569.09
2022-09-16T12:20:18.301Z,97571.31
2022-09-16T12:22:54.614Z,97565.50
2022-09-16T12:25:31.473Z,97564.19
2022-09-16T12:28:10.496Z,97548.75
2022-09-16T12:30:49.326Z,97550.59
2022-09-16T12:33:27.032Z,97558.53
2022-09-16T12:36:04.277Z,97554.03
2022-09-16T12:38:34.667Z,97553.72
2022-09-16T12:41:34.687Z,97552.38
2022-09-16T12:44:46.298Z,97556.81
2022-09-16T12:47:51.728Z,97557.63
2022-09-16T12:50:55.236Z,97556.31
2022-09-16T12:53:56.371Z,97557.94
2022-09-16T12:56:46.294Z,97557.97
2022-09-16T12:59:45.107Z,97566.25
2022-09-16T13:02:24.188Z,97561.94
2022-09-16T13:04:58.942Z,97559.63
2022-09-16T13:07:35.316Z,97561.84
2022-09-16T13:10:08.749Z,97558.91
2022-09-16T13:12:44.010Z,97558.56
2022-09-16T13:15:29.902Z,97547.72
2022-09-16T13:18:12.665Z,97554.13
2022-09-16T13:20:50.649Z,97546.53
2022-09-16T13:23:26.543Z,97539.84
2022-09-16T13:26:02.570Z,97546.16
2022-09-16T13:28:41.761Z,97535.34
2022-09-16T13:31:34.349Z,97537.50
2022-09-16T13:34:21.140Z,97539.22
2022-09-16T13:36:51.375Z,97534.50
2022-09-16T13:39:33.692Z,97538.38
2022-09-16T13:42:21.096Z,97537.94
2022-09-16T13:44:51.508Z,97531.94
2022-09-16T13:47:40.339Z,97534.75
2022-09-16T13:50:19.460Z,97531.66
2022-09-16T13:52:50.678Z,97530.41
2022-09-16T13:55:27.678Z,97529.72
2022-09-16T13:58:07.079Z,97532.63
2022-09-16T14:00:49.979Z,97523.97
2022-09-16T14:03:53.231Z,97521.13
2022-09-16T14:06:54.770Z,97536.72
2022-09-16T14:09:45.973Z,97524.81
2022-09-16T14:12:27.382Z,97520.59
2022-09-16T14:15:01.106Z,97516.81
2022-09-16T14:17:41.890Z,97516.13
2022-09-16T14:20:18.975Z,97507.19
2022-09-16T14:23:05.093Z,97509.25
2022-09-16T14:25:39.105Z,97507.31
2022-09-16T14:28:24.157Z,97499.28
2022-09-16T14:30:58.194Z,97494.00
2022-09-16T14:33:33.859Z,97500.41
2022-09-16T14:36:13.581Z,97501.19
2022-09-16T14:38:52.265Z,97498.94
2022-09-16T14:41:29.716Z,97495.28
2022-09-16T14:44:11.502Z,97498.34
2022-09-16T14:46:47.883Z,97501.53
2022-09-16T14:49:20.185Z,97503.28
2022-09-16T14:51:57.868Z,97496.75
2022-09-16T14:54:31.227Z,97492.72
2022-09-16T14:57:03.438Z,97484.94
2022-09-16T14:59:38.153Z,97487.13
2022-09-16T15:02:19.600Z,97505.75
2022-09-16T15:04:56.884Z,97498.72
2022-09-16T15:07:46.028Z,97491.97
2022-09-16T15:10:49.976Z,97490.22
2022-09-16T15:13:27.028Z,97493.28
2022-09-16T15:16:02.577Z,97489.44
2022-09-16T15:18:36.298Z,97490.41
2022-09-16T15:21:13.328Z,97492.69
2022-09-16T15:23:50.858Z,97490.28
2022-09-16T15:26:27.367Z,97487.72
2022-09-16T15:29:01.352Z,97486.06
2022-09-16T15:31:40.440Z,97485.75
2022-09-16T15:34:26.701Z,97482.50
2022-09-16T15:37:05.264Z,97476.22
2022-09-16T15:39:37.799Z,97483.03
2022-09-16T15:42:20.554Z,97475.91
2022-09-16T15:44:53.815Z,97483.47
2022-09-16T15:47:29.004Z,97474.88
2022-09-16T15:50:05.104Z,97476.63
2022-09-16T15:52:51.833Z,97481.25
2022-09-16T15:55:37.979Z,97479.19
2022-09-16T15:58:20.263Z,97482.72
2022-09-16T16:01:03.436Z,97484.41
2022-09-16T16:03:40.363Z,97487.38
2022-09-16T16:06:10.425Z,97483.09
2022-09-16T16:08:46.054Z,97486.84
2022-09-16T16:11:19.253Z,97483.47
2022-09-16T16:13:53.232Z,97486.41
2022-09-16T16:16:23.585Z,97477.75
2022-09-16T16:18:53.649Z,97468.88
2022-09-16T16:21:23.628Z,97471.22
2022-09-16T16:23:53.932Z,97475.16
2022-09-16T16:26:24.838Z,97485.31
2022-09-16T16:28:57.311Z,97491.09
2022-09-16T16:31:27.367Z,97495.22
2022-09-16T16:33:58.102Z,97484.25
2022-09-16T16:36:28.193Z,97483.91
2022-09-16T16:38:58.248Z,97490.91
2022-09-16T16:41:28.318Z,97492.59
2022-09-16T16:44:00.786Z,97493.16
2022-09-16T16:46:32.689Z,97487.31
2022-09-16T16:49:02.796Z,97485.59
2022-09-16T16:51:32.765Z,97487.19
2022-09-16T16:54:03.635Z,97489.84
2022-09-16T16:56:33.658Z,97491.63
2022-09-16T16:59:06.176Z,97506.09
2022-09-16T17:01:36.203Z,97499.63
2022-09-16T17:04:07.347Z,97504.19
2022-09-16T17:06:38.603Z,97510.75
2022-09-16T17:09:15.889Z,97507.31
2022-09-16T17:11:55.597Z,97505.75
2022-09-16T17:14:30.971Z,97508.41
2022-09-16T17:17:02.706Z,97503.75
2022-09-16T17:19:32.818Z,97506.88
2022-09-16T17:22:03.100Z,97503.72
2022-09-16T17:24:34.721Z,97513.28
2022-09-16T17:27:05.086Z,97508.84
2022-09-16T17:29:37.640Z,97509.63
2022-09-16T17:32:08.182Z,97512.56
2022-09-16T17:34:38.080Z,97512.94
2022-09-16T17:37:08.527Z,97529.19
2022-09-16T17:39:38.697Z,97536.59
2022-09-16T17:42:09.194Z,97551.19
2022-09-16T17:44:42.585Z,97552.41
2022-09-16T17:47:12.721Z,97548.69
2022-09-16T17:49:42.670Z,97553.66
2022-09-16T17:52:12.586Z,97557.19
2022-09-16T17:54:43.084Z,97569.03
2022-09-16T17:57:13.051Z,97576.13
2022-09-16T17:59:45.553Z,97570.38
2022-09-16T18:02:15.840Z,97571.38
2022-09-16T18:04:47.888Z,97577.56
2022-09-16T18:07:17.958Z,97590.97
2022-09-16T18:09:47.961Z,97599.41
2022-09-16T18:12:17.990Z,97599.19
2022-09-16T18:14:50.518Z,97595.63
2022-09-16T18:17:20.452Z,97599.66
2022-09-16T18:19:50.451Z,97600.06
2022-09-16T18:22:20.370Z,97595.00
2022-09-16T18:24:50.571Z,97594.28
2022-09-16T18:27:20.613Z,97595.06
2022-09-16T18:29:53.282Z,97585.03
2022-09-16T18:32:23.228Z,97586.22
2022-09-16T18:34:53.658Z,97595.06
2022-09-16T18:37:24.369Z,97593.91
2022-09-16T18:39:54.363Z,97594.94
2022-09-16T18:42:24.310Z,97590.81
2022-09-16T18:44:56.787Z,97605.53
2022-09-16T18:47:26.813Z,97607.69
2022-09-16T18:49:56.747Z,97614.34
2022-09-16T18:52:26.810Z,97611.81
2022-09-16T18:54:57.215Z,97613.59
2022-09-16T18:57:27.372Z,97602.22
2022-09-16T18:59:59.893Z,97612.00
2022-09-16T19:02:29.943Z,97608.28
2022-09-16T19:05:00.052Z,97609.84
2022-09-16T19:07:30.165Z,97606.53
2022-09-16T19:10:00.135Z,97599.47
2022-09-16T19:12:30.142Z,97598.13
2022-09-16T19:15:02.617Z,97604.00
2022-09-16T19:17:33.179Z,97607.94
2022-09-16T19:20:03.346Z,97607.34
2022-09-16T19:22:33.251Z,97611.81
2022-09-16T19:25:03.198Z,97613.97
2022-09-16T19:27:33.856Z,97615.56
2022-09-16T19:30:07.743Z,97611.63
2022-09-16T19:32:38.093Z,97616.69
2022-09-16T19:35:10.418Z,97623.78
2022-09-16T19:37:40.432Z,97617.09
2022-09-16T19:40:11.852Z,97613.78
2022-09-16T19:42:41.905Z,97619.81
2022-09-16T19:45:14.492Z,97624.34
2022-09-16T19:47:44.588Z,97623.34
2022-09-16T19:50:14.676Z,97627.66
2022-09-16T19:52:44.638Z,97630.22
2022-09-16T19:55:14.563Z,97636.63
2022-09-16T19:57:44.523Z,97630.78
2022-09-16T20:00:18.346Z,97626.47
2022-09-16T20:02:48.882Z,97624.91
2022-09-16T20:05:19.081Z,97625.31
2022-09-16T20:07:49.019Z,97631.56
2022-09-16T20:10:19.250Z,97628.63
2022-09-16T20:12:49.164Z,97636.59
2022-09-16T20:15:22.416Z,97630.34
2022-09-16T20:17:52.343Z,97633.66
2022-09-16T20:20:22.603Z,97641.66
2022-09-16T20:22:52.535Z,97632.66
2022-09-16T20:25:23.694Z,97631.66
2022-09-16T20:27:53.761Z,97634.38
2022-09-16T20:30:26.349Z,97635.31
2022-09-16T20:32:56.320Z,97637.09
2022-09-16T20:35:26.294Z,97632.16
2022-09-16T20:37:56.390Z,97634.84
2022-09-16T20:40:26.472Z,97646.56
2022-09-16T20:42:56.501Z,97650.28
2022-09-16T20:45:29.235Z,97651.66
2022-09-16T20:47:59.329Z,97654.19
2022-09-16T20:50:29.334Z,97661.41
2022-09-16T20:52:59.342Z,97655.94
2022-09-16T20:55:29.492Z,97663.72
2022-09-16T20:57:59.452Z,97661.41
2022-09-16T21:00:33.708Z,97670.75
2022-09-16T21:03:03.652Z,97664.88
2022-09-16T21:05:33.602Z,97673.50
2022-09-16T21:08:03.844Z,97679.00
2022-09-16T21:10:36.060Z,97682.59
2022-09-16T21:13:06.587Z,97682.81
2022-09-16T21:15:39.101Z,97689.47
2022-09-16T21:18:09.768Z,97685.22
2022-09-16T21:20:41.246Z,97684.66
2022-09-16T21:23:11.227Z,97689.00
2022-09-16T21:25:41.929Z,97690.22
2022-09-16T21:28:11.870Z,97689.06
2022-09-16T21:30:44.340Z,97694.41
2022-09-16T21:33:17.833Z,97688.16
2022-09-16T21:35:54.685Z,97691.31
2022-09-16T21:38:24.795Z,97687.41
2022-09-16T21:41:00.015Z,97693.09
2022-09-16T21:43:33.450Z,97689.78
2022-09-16T21:46:06.629Z,97701.91
2022-09-16T21:48:37.562Z,97692.31
2022-09-16T21:51:10.693Z,97698.97
2022-09-16T21:53:42.669Z,97690.16
2022-09-16T21:56:15.705Z,97697.78
2022-09-16T21:58:46.263Z,97689.94
2022-09-16T22:01:22.193Z,97693.88
2022-09-16T22:04:02.580Z,97706.00
2022-09-16T22:06:33.458Z,97699.16
2022-09-16T22:09:07.799Z,97702.06
2022-09-16T22:11:40.890Z,97702.84
2022-09-16T22:14:11.739Z,97703.22
2022-09-16T22:16:44.659Z,97702.81
2022-09-16T22:19:20.728Z,97707.50
2022-09-16T22:21:53.162Z,97714.72
2022-09-16T22:24:23.546Z,97718.84
2022-09-16T22:26:54.639Z,97717.31
2022-09-16T22:29:24.576Z,97722.41
2022-09-16T22:31:57.213Z,97724.38
2022-09-16T22:34:27.140Z,97722.00
2022-09-16T22:36:57.092Z,97720.06
2022-09-16T22:39:27.012Z,97711.44
2022-09-16T22:41:57.047Z,97719.25
2022-09-16T22:44:27.091Z,97720.66
2022-09-16T22:46:59.621Z,97714.19
2022-09-16T22:49:29.553Z,97720.28
2022-09-16T22:51:59.522Z,97712.81
2022-09-16T22:54:29.750Z,97713.44
2022-09-16T22:56:59.644Z,97711.66
2022-09-16T22:59:30.559Z,97719.69
2022-09-16T23:02:03.310Z,97711.06
2022-09-16T23:04:33.693Z,97706.97
2022-09-16T23:07:03.869Z,97718.69
2022-09-16T23:09:35.792Z,97714.38
2022-09-16T23:12:07.367Z,97711.44
2022-09-16T23:14:37.285Z,97714.94
2022-09-16T23:17:09.830Z,97706.53
2022-09-16T23:19:39.752Z,97709.06
2022-09-16T23:22:09.908Z,97709.84
2022-09-16T23:24:39.955Z,97705.56
2022-09-16T23:27:09.873Z,97702.44
2022-09-16T23:29:39.796Z,97702.03
2022-09-16T23:32:12.348Z,97699.28
2022-09-16T23:34:42.341Z,97703.59
2022-09-16T23:37:12.358Z,97698.66
2022-09-16T23:39:42.298Z,97706.25
2022-09-16T23:42:12.941Z,97711.56
2022-09-16T23:44:42.962Z,97712.88
2022-09-16T23:47:15.594Z,97708.22
2022-09-16T23:49:45.554Z,97707.22
2022-09-16T23:52:15.481Z,97704.69
2022-09-16T23:54:45.697Z,97702.31
2022-09-16T23:57:15.679Z,97700.22
2022-09-16T23:59:45.680Z,97701.59
